createdAt,value
2022-09-28T00:00:36.279Z,95083.56
2022-09-28T00:03:03.971Z,95077.38
2022-09-28T00:05:32.740Z,95074.22
2022-09-28T00:08:00.418Z,95062.16
2022-09-28T00:10:29.456Z,95045.81
2022-09-28T00:12:57.110Z,95047.41
2022-09-28T00:15:25.483Z,95033.03
2022-09-28T00:17:53.135Z,95034.03
2022-09-28T00:20:22.195Z,95028.50
2022-09-28T00:22:49.864Z,95025.38
2022-09-28T00:25:17.791Z,95020.94
2022-09-28T00:27:52.114Z,95007.53
2022-09-28T00:30:19.842Z,95012.34
2022-09-28T00:32:47.495Z,95007.59
2022-09-28T00:35:15.308Z,94981.66
2022-09-28T00:37:43.163Z,94991.09
2022-09-28T00:40:11.033Z,94993.78
2022-09-28T00:42:38.713Z,94988.19
2022-09-28T00:45:09.962Z,94978.34
2022-09-28T00:47:49.830Z,94973.53
2022-09-28T00:50:29.862Z,94967.94
2022-09-28T00:53:02.395Z,94959.63
2022-09-28T00:55:37.533Z,94950.59
2022-09-28T00:58:09.197Z,94947.13
2022-09-28T01:00:40.585Z,94956.47
2022-09-28T01:03:09.263Z,94954.84
2022-09-28T01:05:38.432Z,94948.41
2022-09-28T01:08:08.128Z,94946.53
2022-09-28T01:10:35.893Z,94943.91
2022-09-28T01:13:03.658Z,94940.41
2022-09-28T01:15:36.861Z,94928.13
2022-09-28T01:18:13.604Z,94931.63
2022-09-28T01:20:55.781Z,94923.31
2022-09-28T01:23:57.402Z,94913.72
2022-09-28T01:26:47.714Z,94921.16
2022-09-28T01:29:21.155Z,94916.91
2022-09-28T01:31:53.834Z,94912.38
2022-09-28T01:34:28.403Z,94909.97
2022-09-28T01:36:59.076Z,94915.28
2022-09-28T01:39:32.321Z,94907.84
2022-09-28T01:42:06.461Z,94890.19
2022-09-28T01:44:39.774Z,94895.53
2022-09-28T01:47:11.372Z,94893.69
2022-09-28T01:49:43.749Z,94897.66
2022-09-28T01:52:17.051Z,94892.31
2022-09-28T01:54:50.367Z,94889.41
2022-09-28T01:57:23.879Z,94880.59
2022-09-28T02:00:06.091Z,94873.13
2022-09-28T02:02:38.588Z,94868.56
2022-09-28T02:05:10.129Z,94867.22
2022-09-28T02:07:42.928Z,94864.56
2022-09-28T02:10:15.961Z,94864.03
2022-09-28T02:12:49.552Z,94858.13
2022-09-28T02:15:21.664Z,94848.78
2022-09-28T02:17:49.786Z,94842.38
2022-09-28T02:20:18.092Z,94827.19
2022-09-28T02:22:50.727Z,94805.28
2022-09-28T02:25:25.615Z,94838.38
2022-09-28T02:28:00.271Z,94830.91
2022-09-28T02:30:28.460Z,94834.88
2022-09-28T02:33:01.007Z,94819.69
2022-09-28T02:35:28.752Z,94815.69
2022-09-28T02:37:57.049Z,94820.75
2022-09-28T02:40:30.040Z,94819.97
2022-09-28T02:43:06.358Z,94801.25
2022-09-28T02:45:51.416Z,94785.50
2022-09-28T02:49:00.197Z,94805.84
2022-09-28T02:51:28.496Z,94819.69
2022-09-28T02:54:18.957Z,94809.28
2022-09-28T02:56:57.542Z,94810.91
2022-09-28T02:59:41.460Z,94813.28
2022-09-28T03:02:20.120Z,94804.78
2022-09-28T03:05:03.887Z,94803.16
2022-09-28T03:07:37.525Z,94805.31
2022-09-28T03:10:14.327Z,94796.22
2022-09-28T03:12:44.259Z,94793.31
2022-09-28T03:15:15.448Z,94787.97
2022-09-28T03:17:43.125Z,94782.09
2022-09-28T03:20:11.668Z,94768.50
2022-09-28T03:22:39.382Z,94767.97
2022-09-28T03:25:08.788Z,94771.16
2022-09-28T03:27:36.525Z,94757.03
2022-09-28T03:30:04.733Z,94760.22
2022-09-28T03:32:33.974Z,94769.56
2022-09-28T03:35:01.680Z,94775.72
2022-09-28T03:37:29.726Z,94766.38
2022-09-28T03:39:57.472Z,94778.38
2022-09-28T03:42:25.219Z,94767.16
2022-09-28T03:44:52.944Z,94769.56
2022-09-28T03:47:21.392Z,94777.03
2022-09-28T03:49:50.437Z,94776.50
2022-09-28T03:52:18.151Z,94776.50
2022-09-28T03:54:49.260Z,94779.16
2022-09-28T03:57:17.151Z,94767.97
2022-09-28T03:59:44.776Z,94757.03
2022-09-28T04:02:12.591Z,94756.75
2022-09-28T04:04:40.345Z,94759.97
2022-09-28T04:07:09.632Z,94735.97
2022-09-28T04:09:37.285Z,94746.91
2022-09-28T04:12:05.211Z,94749.31
2022-09-28T04:14:32.869Z,94745.31
2022-09-28T04:17:00.519Z,94741.03
2022-09-28T04:19:28.194Z,94744.50
2022-09-28T04:21:55.842Z,94750.66
2022-09-28T04:24:24.896Z,94737.56
2022-09-28T04:26:52.560Z,94742.34
2022-09-28T04:29:19.879Z,94743.69
2022-09-28T04:31:49.628Z,94724.25
2022-09-28T04:34:19.627Z,94736.00
2022-09-28T04:36:48.259Z,94722.38
2022-09-28T04:39:19.294Z,94730.66
2022-09-28T04:41:50.236Z,94724.25
2022-09-28T04:44:17.935Z,94718.91
2022-09-28T04:46:45.594Z,94721.84
2022-09-28T04:49:13.617Z,94718.38
2022-09-28T04:51:41.313Z,94722.63
2022-09-28T04:54:09.112Z,94711.44
2022-09-28T04:56:36.939Z,94714.63
2022-09-28T04:59:06.156Z,94707.16
2022-09-28T05:01:33.941Z,94708.75
2022-09-28T05:04:01.983Z,94705.84
2022-09-28T05:06:30.735Z,94718.63
2022-09-28T05:08:58.442Z,94700.50
2022-09-28T05:11:26.137Z,94701.84
2022-09-28T05:13:53.842Z,94702.34
2022-09-28T05:16:22.869Z,94684.19
2022-09-28T05:18:50.616Z,94699.16
2022-09-28T05:21:20.069Z,94689.53
2022-09-28T05:23:48.657Z,94685.25
2022-09-28T05:26:16.367Z,94687.94
2022-09-28T05:28:44.607Z,94677.00
2022-09-28T05:31:12.295Z,94661.81
2022-09-28T05:33:41.609Z,94685.78
2022-09-28T05:36:10.841Z,94674.03
2022-09-28T05:38:38.763Z,94687.91
2022-09-28T05:41:07.082Z,94689.25
2022-09-28T05:43:35.236Z,94683.09
2022-09-28T05:46:02.966Z,94690.31
2022-09-28T05:48:30.730Z,94692.16
2022-09-28T05:50:59.866Z,94701.78
2022-09-28T05:53:27.527Z,94709.50
2022-09-28T05:55:58.799Z,94703.34
2022-09-28T05:58:26.438Z,94704.16
2022-09-28T06:00:55.932Z,94682.28
2022-09-28T06:03:24.171Z,94691.06
2022-09-28T06:05:52.004Z,94699.06
2022-09-28T06:08:21.216Z,94659.31
2022-09-28T06:10:48.992Z,94682.81
2022-09-28T06:13:16.661Z,94688.66
2022-09-28T06:15:44.823Z,94697.47
2022-09-28T06:18:15.210Z,94701.75
2022-09-28T06:20:43.412Z,94711.34
2022-09-28T06:23:11.538Z,94714.53
2022-09-28T06:25:40.896Z,94716.16
2022-09-28T06:28:11.344Z,94715.09
2022-09-28T06:30:39.905Z,94720.44
2022-09-28T06:33:09.367Z,94703.31
2022-09-28T06:35:37.046Z,94715.06
2022-09-28T06:38:05.369Z,94718.00
2022-09-28T06:40:33.400Z,94719.31
2022-09-28T06:43:04.764Z,94717.16
2022-09-28T06:45:32.453Z,94720.91
2022-09-28T06:48:02.009Z,94726.53
2022-09-28T06:50:32.215Z,94735.88
2022-09-28T06:53:00.860Z,94740.13
2022-09-28T06:55:29.232Z,94736.94
2022-09-28T06:57:59.669Z,94740.69
2022-09-28T07:00:29.363Z,94732.94
2022-09-28T07:02:57.018Z,94753.78
2022-09-28T07:05:26.929Z,94750.28
2022-09-28T07:07:56.206Z,94747.59
2022-09-28T07:10:24.668Z,94741.72
2022-09-28T07:12:53.099Z,94748.66
2022-09-28T07:15:21.304Z,94754.25
2022-09-28T07:18:00.618Z,94752.91
2022-09-28T07:20:30.741Z,94757.69
2022-09-28T07:23:12.568Z,94763.59
2022-09-28T07:25:45.643Z,94755.31
2022-09-28T07:28:13.423Z,94766.75
2022-09-28T07:30:42.252Z,94773.94
2022-09-28T07:33:14.486Z,94767.59
2022-09-28T07:35:42.984Z,94779.03
2022-09-28T07:38:11.981Z,94781.69
2022-09-28T07:40:57.353Z,94782.22
2022-09-28T07:43:25.092Z,94787.56
2022-09-28T07:45:54.934Z,94792.63
2022-09-28T07:48:24.385Z,94788.34
2022-09-28T07:50:53.418Z,94781.66
2022-09-28T07:53:21.930Z,94785.94
2022-09-28T07:55:52.807Z,94783.78
2022-09-28T07:58:20.711Z,94796.59
2022-09-28T08:00:49.415Z,94791.25
2022-09-28T08:03:17.356Z,94790.16
2022-09-28T08:05:47.422Z,94785.13
2022-09-28T08:08:15.328Z,94796.59
2022-09-28T08:10:46.896Z,94795.00
2022-09-28T08:13:16.311Z,94804.84
2022-09-28T08:15:44.079Z,94822.09
2022-09-28T08:18:11.911Z,94823.34
2022-09-28T08:20:57.030Z,94826.63
2022-09-28T08:23:26.158Z,94826.59
2022-09-28T08:25:56.966Z,94826.88
2022-09-28T08:28:25.818Z,94823.69
2022-09-28T08:30:54.279Z,94826.94
2022-09-28T08:33:22.585Z,94815.69
2022-09-28T08:35:57.444Z,94830.63
2022-09-28T08:38:27.290Z,94821.31
2022-09-28T08:41:05.273Z,94818.34
2022-09-28T08:43:54.024Z,94822.13
2022-09-28T08:46:27.171Z,94827.44
2022-09-28T08:49:23.775Z,94836.56
2022-09-28T08:51:53.902Z,94837.34
2022-09-28T08:54:31.667Z,94838.38
2022-09-28T08:57:04.527Z,94839.06
2022-09-28T08:59:43.031Z,94833.63
2022-09-28T09:02:16.580Z,94835.84
2022-09-28T09:04:44.851Z,94834.09
2022-09-28T09:07:27.385Z,94840.44
2022-09-28T09:10:08.118Z,94840.56
2022-09-28T09:12:48.429Z,94845.69
2022-09-28T09:15:47.721Z,94854.81
2022-09-28T09:18:27.199Z,94848.34
2022-09-28T09:20:57.522Z,94849.41
2022-09-28T09:23:36.378Z,94857.47
2022-09-28T09:26:21.602Z,94859.31
2022-09-28T09:29:04.016Z,94862.47
2022-09-28T09:31:46.271Z,94864.00
2022-09-28T09:34:31.563Z,94861.56
2022-09-28T09:37:17.688Z,94861.44
2022-09-28T09:40:00.374Z,94863.47
2022-09-28T09:42:48.547Z,94854.13
2022-09-28T09:45:29.278Z,94855.63
2022-09-28T09:48:02.238Z,94846.59
2022-09-28T09:50:33.165Z,94846.47
2022-09-28T09:53:06.493Z,94853.22
2022-09-28T09:55:40.879Z,94854.59
2022-09-28T09:58:16.039Z,94850.41
2022-09-28T10:00:46.217Z,94848.75
2022-09-28T10:03:22.060Z,94841.78
2022-09-28T10:05:56.383Z,94859.38
2022-09-28T10:08:26.300Z,94853.28
2022-09-28T10:10:57.768Z,94858.47
2022-09-28T10:13:26.848Z,94862.41
2022-09-28T10:15:55.444Z,94867.25
2022-09-28T10:18:23.269Z,94865.38
2022-09-28T10:20:50.987Z,94864.59
2022-09-28T10:23:23.863Z,94860.97
2022-09-28T10:25:53.501Z,94855.16
2022-09-28T10:28:34.842Z,94866.59
2022-09-28T10:31:37.413Z,94870.97
2022-09-28T10:34:06.179Z,94863.34
2022-09-28T10:36:38.596Z,94864.09
2022-09-28T10:39:07.061Z,94860.84
2022-09-28T10:41:34.950Z,94853.66
2022-09-28T10:44:08.792Z,94869.63
2022-09-28T10:46:39.454Z,94870.28
2022-09-28T10:49:14.806Z,94870.88
2022-09-28T10:51:44.124Z,94864.09
2022-09-28T10:54:16.875Z,94861.28
2022-09-28T10:56:45.578Z,94854.84
2022-09-28T10:59:38.947Z,94853.88
2022-09-28T11:02:20.165Z,94862.38
2022-09-28T11:04:54.312Z,94876.50
2022-09-28T11:07:25.203Z,94861.22
2022-09-28T11:09:54.558Z,94870.72
2022-09-28T11:12:24.333Z,94863.94
2022-09-28T11:15:00.004Z,94863.50
2022-09-28T11:17:30.356Z,94864.88
2022-09-28T11:20:00.460Z,94859.56
2022-09-28T11:22:41.688Z,94866.53
2022-09-28T11:25:20.285Z,94854.13
2022-09-28T11:27:58.625Z,94864.00
2022-09-28T11:30:32.921Z,94873.97
2022-09-28T11:33:04.888Z,94876.75
2022-09-28T11:35:45.294Z,94867.63
2022-09-28T11:38:31.746Z,94875.91
2022-09-28T11:41:10.445Z,94871.72
2022-09-28T11:43:52.844Z,94868.00
2022-09-28T11:46:32.690Z,94869.38
2022-09-28T11:49:08.971Z,94865.56
2022-09-28T11:51:41.029Z,94862.88
2022-09-28T11:54:15.867Z,94865.47
2022-09-28T11:56:46.446Z,94859.16
2022-09-28T11:59:19.850Z,94861.28
2022-09-28T12:01:54.343Z,94866.03
2022-09-28T12:04:27.466Z,94816.84
2022-09-28T12:06:59.355Z,94828.38
2022-09-28T12:09:37.042Z,94863.13
2022-09-28T12:12:15.572Z,94866.50
2022-09-28T12:14:43.614Z,94869.28
2022-09-28T12:17:22.474Z,94860.25
2022-09-28T12:19:55.301Z,94870.78
2022-09-28T12:22:31.287Z,94873.53
2022-09-28T12:24:59.712Z,94869.91
2022-09-28T12:27:33.744Z,94871.41
2022-09-28T12:30:06.648Z,94841.06
2022-09-28T12:32:42.375Z,94863.84
2022-09-28T12:35:16.025Z,94830.75
2022-09-28T12:38:08.901Z,94858.16
2022-09-28T12:40:42.284Z,94854.44
2022-09-28T12:43:33.391Z,94874.75
2022-09-28T12:46:21.647Z,94882.44
2022-09-28T12:50:01.846Z,94888.50
2022-09-28T12:52:10.719Z,94893.59
2022-09-28T12:55:08.820Z,94885.03
2022-09-28T12:57:48.846Z,94883.06
2022-09-28T13:00:22.168Z,94892.91
2022-09-28T13:03:09.320Z,94900.16
2022-09-28T13:06:18.526Z,94905.41
2022-09-28T13:08:57.607Z,94909.84
2022-09-28T13:11:34.922Z,94891.38
2022-09-28T13:14:25.319Z,94895.19
2022-09-28T13:17:00.781Z,94889.84
2022-09-28T13:19:38.523Z,94882.69
2022-09-28T13:22:22.973Z,94879.75
2022-09-28T13:24:56.175Z,94887.47
2022-09-28T13:27:32.389Z,94896.06
2022-09-28T13:30:03.009Z,94889.66
2022-09-28T13:32:33.839Z,94893.31
2022-09-28T13:35:02.765Z,94896.59
2022-09-28T13:37:30.589Z,94874.22
2022-09-28T13:40:05.659Z,94888.59
2022-09-28T13:42:53.462Z,94886.16
2022-09-28T13:45:51.527Z,94890.19
2022-09-28T13:48:23.483Z,94893.66
2022-09-28T13:51:17.267Z,94902.53
2022-09-28T13:54:06.782Z,94889.44
2022-09-28T13:56:44.641Z,94903.84
2022-09-28T13:59:20.523Z,94914.53
2022-09-28T14:01:55.762Z,94901.94
2022-09-28T14:04:25.320Z,94925.47
2022-09-28T14:06:57.429Z,94924.97
2022-09-28T14:09:40.713Z,94941.50
2022-09-28T14:12:32.279Z,94940.47
2022-09-28T14:15:00.635Z,94936.13
2022-09-28T14:17:59.306Z,94933.50
2022-09-28T14:20:31.322Z,94922.78
2022-09-28T14:23:26.778Z,94918.25
2022-09-28T14:26:15.846Z,94925.16
2022-09-28T14:28:57.512Z,94922.69
2022-09-28T14:31:27.499Z,94932.72
2022-09-28T14:33:58.676Z,94929.47
2022-09-28T14:36:46.767Z,94933.75
2022-09-28T14:39:40.753Z,94935.66
2022-09-28T14:42:15.699Z,94925.22
2022-09-28T14:45:35.694Z,94925.50
2022-09-28T14:48:16.192Z,94913.22
2022-09-28T14:50:43.879Z,94922.28
2022-09-28T14:53:13.430Z,94923.06
2022-09-28T14:55:51.202Z,94919.88
2022-09-28T14:58:22.592Z,94912.13
2022-09-28T15:01:02.098Z,94919.88
2022-09-28T15:03:33.994Z,94913.47
2022-09-28T15:06:02.763Z,94904.69
2022-09-28T15:08:38.427Z,94903.59
2022-09-28T15:11:07.252Z,94885.94
2022-09-28T15:13:35.262Z,94893.44
2022-09-28T15:16:09.976Z,94911.06
2022-09-28T15:19:01.120Z,94923.88
2022-09-28T15:21:35.672Z,94928.16
2022-09-28T15:24:03.342Z,94918.81
2022-09-28T15:26:32.862Z,94915.63
2022-09-28T15:29:03.120Z,94915.34
2022-09-28T15:31:36.587Z,94915.88
2022-09-28T15:34:21.942Z,94916.91
2022-09-28T15:36:49.945Z,94926.00
2022-09-28T15:39:22.144Z,94934.00
2022-09-28T15:41:51.183Z,94929.19
2022-09-28T15:44:30.185Z,94932.59
2022-09-28T15:47:15.075Z,94933.69
2022-09-28T15:49:47.631Z,94917.94
2022-09-28T15:52:41.767Z,94935.03
2022-09-28T15:55:21.711Z,94934.50
2022-09-28T15:57:49.895Z,94931.84
2022-09-28T16:00:28.772Z,94931.78
2022-09-28T16:03:03.673Z,94937.41
2022-09-28T16:05:36.166Z,94939.53
2022-09-28T16:08:05.174Z,94947.84
2022-09-28T16:10:35.078Z,94946.78
2022-09-28T16:13:17.796Z,94947.28
2022-09-28T16:15:46.013Z,94951.03
2022-09-28T16:18:22.102Z,94948.84
2022-09-28T16:20:52.306Z,94947.53
2022-09-28T16:23:33.249Z,94945.66
2022-09-28T16:26:03.791Z,94952.56
2022-09-28T16:28:52.093Z,94955.25
2022-09-28T16:31:29.921Z,94953.66
2022-09-28T16:34:01.784Z,94955.72
2022-09-28T16:36:39.784Z,94957.84
2022-09-28T16:39:07.640Z,94971.19
2022-09-28T16:41:35.599Z,94971.69
2022-09-28T16:44:03.710Z,94976.44
2022-09-28T16:46:37.135Z,94977.03
2022-09-28T16:49:07.718Z,94979.69
2022-09-28T16:51:35.459Z,94981.53
2022-09-28T16:54:32.685Z,94984.75
2022-09-28T16:57:01.244Z,94981.25
2022-09-28T16:59:29.431Z,94981.28
2022-09-28T17:01:57.653Z,94978.03
2022-09-28T17:04:27.152Z,94991.84
2022-09-28T17:06:58.321Z,94996.69
2022-09-28T17:09:26.020Z,94993.03
2022-09-28T17:11:57.003Z,94999.38
2022-09-28T17:14:25.302Z,94997.25
2022-09-28T17:17:13.707Z,94989.78
2022-09-28T17:19:43.378Z,94997.00
2022-09-28T17:22:11.057Z,94988.66
2022-09-28T17:24:38.911Z,95012.59
2022-09-28T17:27:07.868Z,95007.88
2022-09-28T17:29:35.500Z,95017.72
2022-09-28T17:32:04.975Z,95010.63
2022-09-28T17:34:32.652Z,95022.03
2022-09-28T17:37:01.716Z,95028.88
2022-09-28T17:39:31.600Z,95031.91
2022-09-28T17:41:59.480Z,95042.00
2022-09-28T17:44:27.154Z,95036.66
2022-09-28T17:46:54.872Z,95041.47
2022-09-28T17:49:22.538Z,95045.53
2022-09-28T17:51:52.776Z,95041.53
2022-09-28T17:54:22.846Z,95049.56
2022-09-28T17:56:50.663Z,95049.63
2022-09-28T17:59:19.547Z,95048.81
2022-09-28T18:01:48.297Z,95052.84
2022-09-28T18:04:39.837Z,95058.16
2022-09-28T18:07:04.715Z,95056.06
2022-09-28T18:09:33.746Z,95058.72
2022-09-28T18:12:04.935Z,95058.84
2022-09-28T18:14:32.689Z,95073.31
2022-09-28T18:17:00.394Z,95088.06
2022-09-28T18:19:31.898Z,95080.03
2022-09-28T18:21:59.788Z,95088.03
2022-09-28T18:24:27.470Z,95085.59
2022-09-28T18:26:56.515Z,95084.72
2022-09-28T18:29:24.259Z,95085.03
2022-09-28T18:31:52.063Z,95083.72
2022-09-28T18:34:19.935Z,95084.31
2022-09-28T18:36:48.294Z,95089.69
2022-09-28T18:39:16.034Z,95088.03
2022-09-28T18:41:43.999Z,95072.50
2022-09-28T18:44:13.056Z,95086.38
2022-09-28T18:46:43.531Z,95090.38
2022-09-28T18:49:11.461Z,95090.91
2022-09-28T18:51:39.497Z,95090.16
2022-09-28T18:54:07.698Z,95101.31
2022-09-28T18:56:37.985Z,95092.28
2022-09-28T18:59:09.930Z,95102.44
2022-09-28T19:01:41.790Z,95100.31
2022-09-28T19:04:11.844Z,95106.94
2022-09-28T19:06:41.487Z,95100.34
2022-09-28T19:09:10.013Z,95101.69
2022-09-28T19:11:37.968Z,95106.22
2022-09-28T19:14:05.654Z,95103.00
2022-09-28T19:16:34.601Z,95101.91
2022-09-28T19:19:03.765Z,95104.06
2022-09-28T19:21:31.760Z,95106.16
2022-09-28T19:24:02.455Z,95101.94
2022-09-28T19:26:31.265Z,95098.13
2022-09-28T19:28:59.816Z,95104.03
2022-09-28T19:31:28.038Z,95094.97
2022-09-28T19:33:55.720Z,95099.50
2022-09-28T19:36:28.346Z,95079.94
2022-09-28T19:38:57.243Z,95105.06
2022-09-28T19:41:44.376Z,95105.59
2022-09-28T19:44:24.307Z,95101.41
2022-09-28T19:46:54.438Z,95102.72
2022-09-28T19:49:23.696Z,95096.59
2022-09-28T19:52:13.856Z,95050.81
2022-09-28T19:54:44.480Z,95089.03
2022-09-28T19:57:12.980Z,95088.56
2022-09-28T19:59:40.811Z,95087.72
2022-09-28T20:02:11.213Z,95093.84
2022-09-28T20:04:38.969Z,95090.09
2022-09-28T20:07:08.087Z,95082.66
2022-09-28T20:09:35.814Z,95075.66
2022-09-28T20:12:03.488Z,95077.53
2022-09-28T20:14:35.261Z,95079.34
2022-09-28T20:17:05.892Z,95078.81
2022-09-28T20:19:33.680Z,95074.03
2022-09-28T20:22:02.775Z,95068.69
2022-09-28T20:24:32.596Z,95063.13
2022-09-28T20:27:01.156Z,95070.63
2022-09-28T20:29:29.216Z,95058.31
2022-09-28T20:31:57.183Z,95068.22
2022-09-28T20:34:24.871Z,95062.84
2022-09-28T20:36:52.625Z,95062.34
2022-09-28T20:39:20.763Z,95055.09
2022-09-28T20:41:49.940Z,95048.97
2022-09-28T20:44:17.841Z,95043.06
2022-09-28T20:46:45.726Z,95061.78
2022-09-28T20:49:13.578Z,95058.59
2022-09-28T20:51:41.675Z,95051.63
2022-09-28T20:54:09.541Z,95061.75
2022-09-28T20:56:38.810Z,95056.72
2022-09-28T20:59:09.144Z,95063.34
2022-09-28T21:01:36.990Z,95066.31
2022-09-28T21:04:06.574Z,95057.22
2022-09-28T21:06:36.824Z,95046.66
2022-09-28T21:09:06.063Z,95065.59
2022-09-28T21:11:35.516Z,95068.59
2022-09-28T21:14:06.020Z,95066.19
2022-09-28T21:16:36.206Z,95066.69
2022-09-28T21:19:04.687Z,95038.63
2022-09-28T21:21:32.492Z,95066.97
2022-09-28T21:24:00.255Z,95076.31
2022-09-28T21:26:29.565Z,95075.72
2022-09-28T21:28:58.856Z,95080.28
2022-09-28T21:31:29.566Z,95075.22
2022-09-28T21:33:59.426Z,95077.66
2022-09-28T21:36:27.152Z,95072.31
2022-09-28T21:38:55.481Z,95072.28
2022-09-28T21:41:23.607Z,95078.34
2022-09-28T21:43:51.515Z,95071.47
2022-09-28T21:46:19.683Z,95053.00
2022-09-28T21:48:47.494Z,95073.94
2022-09-28T21:51:16.711Z,95076.63
2022-09-28T21:53:44.436Z,95074.00
2022-09-28T21:56:13.955Z,95047.19
2022-09-28T21:58:41.942Z,95071.31
2022-09-28T22:01:12.118Z,95072.63
2022-09-28T22:03:39.929Z,95070.78
2022-09-28T22:06:08.509Z,95068.94
2022-09-28T22:08:38.542Z,95066.00
2022-09-28T22:11:08.489Z,95064.94
2022-09-28T22:13:40.240Z,95059.44
2022-09-28T22:16:08.668Z,95063.78
2022-09-28T22:18:36.493Z,95056.81
2022-09-28T22:21:07.359Z,95046.63
2022-09-28T22:23:37.613Z,95047.66
2022-09-28T22:26:08.220Z,95053.47
2022-09-28T22:28:36.246Z,95056.69
2022-09-28T22:31:04.130Z,95050.25
2022-09-28T22:33:31.901Z,95047.84
2022-09-28T22:35:59.568Z,95048.88
2022-09-28T22:38:28.068Z,95047.19
2022-09-28T22:40:58.269Z,95050.63
2022-09-28T22:43:28.335Z,95057.50
2022-09-28T22:46:03.312Z,95051.19
2022-09-28T22:48:31.452Z,95041.31
2022-09-28T22:50:59.591Z,95007.34
2022-09-28T22:53:28.325Z,95042.13
2022-09-28T22:55:58.371Z,95041.38
2022-09-28T22:58:26.117Z,95032.50
2022-09-28T23:00:54.067Z,95039.16
2022-09-28T23:03:21.737Z,95030.91
2022-09-28T23:05:53.946Z,95034.09
2022-09-28T23:08:21.852Z,95033.81
2022-09-28T23:10:49.775Z,95041.53
2022-09-28T23:13:19.172Z,95026.66
2022-09-28T23:15:56.749Z,95030.47
2022-09-28T23:18:24.665Z,95020.19
2022-09-28T23:20:55.922Z,95024.03
2022-09-28T23:23:24.002Z,95028.34
2022-09-28T23:25:52.797Z,95023.28
2022-09-28T23:28:23.553Z,95026.28
2022-09-28T23:30:52.100Z,95024.31
2022-09-28T23:33:21.299Z,94997.31
2022-09-28T23:35:49.377Z,95028.06
2022-09-28T23:38:18.839Z,95018.41
2022-09-28T23:40:47.249Z,94995.88
2022-09-28T23:43:15.386Z,95022.13
2022-09-28T23:45:45.504Z,95010.09
2022-09-28T23:48:15.192Z,95008.03
2022-09-28T23:50:43.511Z,94998.97
2022-09-28T23:53:11.957Z,94999.72
2022-09-28T23:55:39.648Z,94994.91
2022-09-28T23:58:07.535Z,94993.03
